createdAt,value
2022-12-18T00:00:02.440Z,61.9
2022-12-18T00:03:02.483Z,63
2022-12-18T00:06:02.477Z,62.3
2022-12-18T00:09:02.460Z,61.5
2022-12-18T00:15:02.476Z,62.7
2022-12-18T00:18:02.480Z,59.8
2022-12-18T00:21:02.479Z,60
2022-12-18T00:24:02.518Z,60.5
2022-12-18T00:27:02.494Z,61.5
2022-12-18T00:30:02.506Z,59.1
2022-12-18T00:33:02.512Z,64
2022-12-18T00:36:02.515Z,63
2022-12-18T00:39:02.521Z,62.8
2022-12-18T00:42:02.566Z,63.4
2022-12-18T00:45:04.435Z,62.7
2022-12-18T00:48:02.551Z,66.1
2022-12-18T00:51:02.556Z,61.3
2022-12-18T00:54:02.570Z,60.2
2022-12-18T00:57:02.575Z,60
2022-12-18T01:00:02.599Z,60.1
2022-12-18T01:03:02.630Z,61.6
2022-12-18T01:06:02.677Z,62.6
2022-12-18T01:09:02.606Z,59.9
2022-12-18T01:12:02.604Z,63.1
2022-12-18T01:15:02.613Z,63.7
2022-12-18T01:18:02.640Z,62.1
2022-12-18T01:21:02.631Z,57.9
2022-12-18T01:24:02.637Z,57.6
2022-12-18T01:27:02.647Z,62.2
2022-12-18T01:30:02.661Z,63.2
2022-12-18T01:33:02.671Z,59.8
2022-12-18T01:36:02.682Z,60.4
2022-12-18T01:39:02.689Z,57.8
2022-12-18T01:42:02.701Z,60.9
2022-12-18T01:45:02.724Z,58.8
2022-12-18T01:48:02.718Z,57.5
2022-12-18T01:51:02.721Z,59
2022-12-18T01:54:02.731Z,57.8
2022-12-18T01:57:02.750Z,56.3
2022-12-18T02:00:02.752Z,59.6
2022-12-18T02:03:02.805Z,59
2022-12-18T02:06:02.779Z,58.8
2022-12-18T02:09:02.780Z,59.3
2022-12-18T02:12:02.793Z,57.4
2022-12-18T02:15:02.931Z,55.3
2022-12-18T02:18:02.814Z,55.6
2022-12-18T02:21:02.821Z,57.2
2022-12-18T02:24:02.834Z,55.7
2022-12-18T02:27:02.837Z,55
2022-12-18T02:30:02.854Z,53
2022-12-18T02:33:02.971Z,52.3
2022-12-18T02:36:02.865Z,49.3
2022-12-18T02:39:02.876Z,51
2022-12-18T02:42:02.881Z,53.3
2022-12-18T02:45:02.885Z,49.9
2022-12-18T02:48:02.892Z,50.3
2022-12-18T02:51:03.013Z,49.4
2022-12-18T02:54:02.903Z,47.1
2022-12-18T02:57:02.902Z,48.9
2022-12-18T03:00:02.916Z,47.6
2022-12-18T03:03:03.035Z,46.9
2022-12-18T03:06:02.923Z,48.3
2022-12-18T03:09:03.054Z,47.9
2022-12-18T03:12:02.932Z,46.8
2022-12-18T03:15:02.933Z,50.5
2022-12-18T03:18:02.939Z,48.1
2022-12-18T03:21:02.943Z,48.3
2022-12-18T03:24:02.949Z,48.8
2022-12-18T03:27:03.073Z,44.5
2022-12-18T03:30:02.958Z,46.5
2022-12-18T03:33:02.955Z,45.5
2022-12-18T03:36:02.964Z,44.8
2022-12-18T03:39:02.966Z,45.5
2022-12-18T03:42:02.978Z,44.9
2022-12-18T03:45:03.109Z,44.9
2022-12-18T03:48:02.979Z,48.4
2022-12-18T03:51:02.989Z,46.5
2022-12-18T03:54:02.990Z,46.7
2022-12-18T03:57:02.999Z,47.8
2022-12-18T04:00:03.005Z,47.5
2022-12-18T04:03:03.179Z,47
2022-12-18T04:06:03.002Z,47.1
2022-12-18T04:09:03.014Z,46.2
2022-12-18T04:12:03.023Z,46.3
2022-12-18T04:15:03.025Z,46.1
2022-12-18T04:18:03.029Z,46.3
2022-12-18T04:21:03.153Z,45.4
2022-12-18T04:24:03.036Z,44.2
2022-12-18T04:27:03.043Z,45.3
2022-12-18T04:30:03.041Z,46
2022-12-18T04:33:03.047Z,48.3
2022-12-18T04:36:03.049Z,47.3
2022-12-18T04:39:03.180Z,47.8
2022-12-18T04:42:03.058Z,45.9
2022-12-18T04:45:03.069Z,46.3
2022-12-18T04:48:03.075Z,45.5
2022-12-18T04:51:03.071Z,47.1
2022-12-18T04:54:03.082Z,45.5
2022-12-18T04:57:03.202Z,45.7
2022-12-18T05:00:03.087Z,46.5
2022-12-18T05:03:03.141Z,47.1
2022-12-18T05:06:03.100Z,47.3
2022-12-18T05:09:03.109Z,47.3
2022-12-18T05:12:03.109Z,48.8
2022-12-18T05:15:08.236Z,47.8
2022-12-18T05:18:03.245Z,47.5
2022-12-18T05:21:03.136Z,45.6
2022-12-18T05:24:03.136Z,48.1
2022-12-18T05:27:03.297Z,47.4
2022-12-18T05:30:03.139Z,46.3
2022-12-18T05:33:03.150Z,49.2
2022-12-18T05:36:09.130Z,49.2
2022-12-18T05:39:03.276Z,46.1
2022-12-18T05:42:03.161Z,49.4
2022-12-18T05:45:03.171Z,47.4
2022-12-18T05:48:03.172Z,47.1
2022-12-18T05:51:03.176Z,50.5
2022-12-18T05:54:03.283Z,48.1
2022-12-18T05:57:09.166Z,49.1
2022-12-18T06:00:03.316Z,47.7
2022-12-18T06:03:03.377Z,47
2022-12-18T06:06:03.199Z,46.6
2022-12-18T06:09:03.207Z,45.6
2022-12-18T06:12:03.209Z,44.6
2022-12-18T06:15:03.214Z,46.5
2022-12-18T06:18:03.338Z,46.1
2022-12-18T06:21:03.230Z,45.8
2022-12-18T06:24:03.222Z,45
2022-12-18T06:27:03.235Z,45.2
2022-12-18T06:30:03.236Z,45.4
2022-12-18T06:33:03.240Z,47.2
2022-12-18T06:36:03.358Z,45.5
2022-12-18T06:39:03.245Z,47.5
2022-12-18T06:42:03.249Z,46
2022-12-18T06:45:03.251Z,47.6
2022-12-18T06:48:03.260Z,46
2022-12-18T06:51:03.270Z,48.2
2022-12-18T06:54:03.397Z,48.6
2022-12-18T06:57:03.275Z,47.1
2022-12-18T07:00:03.282Z,47.9
2022-12-18T07:03:03.314Z,45.6
2022-12-18T07:06:03.298Z,45.2
2022-12-18T07:09:03.303Z,45
2022-12-18T07:12:03.428Z,47.5
2022-12-18T07:15:03.313Z,47.7
2022-12-18T07:18:03.314Z,49.6
2022-12-18T07:21:03.327Z,46.1
2022-12-18T07:24:03.321Z,46.4
2022-12-18T07:27:03.321Z,49.8
2022-12-18T07:30:08.541Z,46.9
2022-12-18T07:33:03.462Z,47.8
2022-12-18T07:36:03.341Z,48.2
2022-12-18T07:39:03.343Z,48.2
2022-12-18T07:42:03.405Z,49.6
2022-12-18T07:45:03.357Z,48.5
2022-12-18T07:48:03.357Z,49.1
2022-12-18T07:51:03.483Z,50.1
2022-12-18T07:54:03.363Z,49.5
2022-12-18T07:57:03.365Z,49.9
2022-12-18T08:00:03.373Z,52.7
2022-12-18T08:03:03.399Z,56.6
2022-12-18T08:06:03.371Z,61.8
2022-12-18T08:09:03.496Z,63.4
2022-12-18T08:12:03.393Z,62.4
2022-12-18T08:15:03.404Z,63.4
2022-12-18T08:18:03.403Z,63.5
2022-12-18T08:21:03.408Z,60.8
2022-12-18T08:24:03.413Z,58.8
2022-12-18T08:30:03.417Z,57.5
2022-12-18T08:33:03.425Z,57.7
2022-12-18T08:36:03.427Z,54.3
2022-12-18T08:39:03.444Z,55.2
2022-12-18T08:42:08.330Z,55.3
2022-12-18T08:45:03.562Z,48.4
2022-12-18T08:48:03.448Z,50.7
2022-12-18T08:51:03.454Z,49.8
2022-12-18T08:54:03.454Z,49.8
2022-12-18T08:57:03.470Z,50.7
2022-12-18T09:00:03.468Z,49.9
2022-12-18T09:03:03.615Z,49.5
2022-12-18T09:06:03.484Z,45.7
2022-12-18T09:09:03.490Z,44.5
2022-12-18T09:12:03.490Z,42.8
2022-12-18T09:15:03.492Z,42.2
2022-12-18T09:18:03.495Z,41.6
2022-12-18T09:21:03.619Z,41.7
2022-12-18T09:24:03.499Z,42.4
2022-12-18T09:27:03.501Z,42.2
2022-12-18T09:30:03.510Z,42.9
2022-12-18T09:33:03.520Z,42.6
2022-12-18T09:36:03.559Z,41.7
2022-12-18T09:39:07.768Z,43.1
2022-12-18T09:42:03.530Z,43.5
2022-12-18T09:45:03.600Z,42.4
2022-12-18T09:48:03.540Z,46.6
2022-12-18T09:51:03.542Z,45.5
2022-12-18T09:54:03.547Z,46.3
2022-12-18T09:57:03.665Z,49.6
2022-12-18T10:00:03.553Z,47.6
2022-12-18T10:03:03.675Z,47.6
2022-12-18T10:06:03.565Z,51
2022-12-18T10:09:03.564Z,48
2022-12-18T10:12:03.566Z,46.2
2022-12-18T10:15:03.691Z,46.2
2022-12-18T10:18:03.574Z,47.3
2022-12-18T10:21:03.583Z,43.5
2022-12-18T10:24:03.590Z,43.4
2022-12-18T10:27:03.595Z,43.4
2022-12-18T10:30:03.596Z,45
2022-12-18T10:33:03.724Z,46.6
2022-12-18T10:36:03.608Z,49.8
2022-12-18T10:39:03.605Z,54.3
2022-12-18T10:42:03.606Z,48.8
2022-12-18T10:45:03.613Z,47.6
2022-12-18T10:48:03.625Z,48.1
2022-12-18T10:51:12.456Z,47.3
2022-12-18T10:54:03.629Z,47.3
2022-12-18T10:57:03.632Z,47
2022-12-18T11:00:03.632Z,47
2022-12-18T11:03:03.809Z,50.1
2022-12-18T11:06:03.652Z,49.9
2022-12-18T11:09:06.681Z,48.8
2022-12-18T11:12:03.657Z,50.6
2022-12-18T11:15:03.665Z,51.2
2022-12-18T11:18:03.667Z,51
2022-12-18T11:21:03.672Z,48.9
2022-12-18T11:24:03.675Z,50.8
2022-12-18T11:27:03.796Z,48
2022-12-18T11:30:03.686Z,49.9
2022-12-18T11:33:03.695Z,50.5
2022-12-18T11:36:03.728Z,46.4
2022-12-18T11:39:03.694Z,47.7
2022-12-18T11:42:03.705Z,48.1
2022-12-18T11:45:03.825Z,48.5
2022-12-18T11:48:03.708Z,48.6
2022-12-18T11:51:03.706Z,51.3
2022-12-18T11:54:03.715Z,48.7
2022-12-18T11:57:03.733Z,48.8
2022-12-18T12:00:03.730Z,48.1
2022-12-18T12:03:03.963Z,46.4
2022-12-18T12:06:03.735Z,45.9
2022-12-18T12:09:03.746Z,47.5
2022-12-18T12:12:03.750Z,43.3
2022-12-18T12:15:03.751Z,45.8
2022-12-18T12:18:06.910Z,45.1
2022-12-18T12:21:03.872Z,43.9
2022-12-18T12:24:03.767Z,41.9
2022-12-18T12:27:03.769Z,42
2022-12-18T12:30:03.770Z,42.7
2022-12-18T12:33:03.779Z,40.6
2022-12-18T12:36:03.775Z,41.6
2022-12-18T12:39:04.072Z,43.3
2022-12-18T12:42:03.786Z,40.3
2022-12-18T12:45:03.796Z,38.9
2022-12-18T12:48:03.801Z,39.9
2022-12-18T12:51:03.822Z,39.2
2022-12-18T12:54:03.809Z,38.1
2022-12-18T12:57:03.937Z,36.1
2022-12-18T13:00:03.816Z,36.8
2022-12-18T13:03:03.812Z,37.1
2022-12-18T13:06:03.819Z,36.1
2022-12-18T13:09:03.823Z,33.6
2022-12-18T13:12:03.873Z,35.1
2022-12-18T13:15:07.608Z,35.2
2022-12-18T13:18:03.834Z,32.2
2022-12-18T13:21:04.102Z,32.3
2022-12-18T13:24:03.923Z,33.2
2022-12-18T13:27:03.902Z,31.8
2022-12-18T13:30:03.837Z,34
2022-12-18T13:33:03.966Z,31.3
2022-12-18T13:36:03.886Z,29.8
2022-12-18T13:39:03.854Z,30.9
2022-12-18T13:42:03.860Z,30.7
2022-12-18T13:45:03.861Z,33.1
2022-12-18T13:48:03.873Z,31.8
2022-12-18T13:51:04.015Z,31.1
2022-12-18T13:54:03.894Z,29.8
2022-12-18T13:57:03.914Z,31.4
2022-12-18T14:00:03.913Z,30.6
2022-12-18T14:03:04.109Z,29.1
2022-12-18T14:06:03.934Z,26
2022-12-18T14:09:04.055Z,24
2022-12-18T14:12:03.949Z,25.5
2022-12-18T14:15:03.948Z,24.8
2022-12-18T14:18:03.954Z,27.1
2022-12-18T14:21:03.965Z,26.3
2022-12-18T14:24:03.957Z,26.8
2022-12-18T14:27:04.079Z,28.7
2022-12-18T14:30:03.971Z,26.5
2022-12-18T14:33:03.975Z,28.7
2022-12-18T14:36:03.991Z,26.7
2022-12-18T14:39:03.991Z,28.1
2022-12-18T14:42:03.994Z,30.1
2022-12-18T14:45:13.743Z,26.7
2022-12-18T14:48:04.031Z,30.3
2022-12-18T14:51:04.009Z,28.3
2022-12-18T14:54:04.010Z,65.4
2022-12-18T14:57:04.020Z,54.1
2022-12-18T15:00:04.025Z,25.1
2022-12-18T15:03:04.218Z,29.1
2022-12-18T15:06:04.029Z,24.9
2022-12-18T15:09:04.036Z,25.4
2022-12-18T15:12:04.050Z,24.7
2022-12-18T15:15:04.051Z,25.7
2022-12-18T15:18:04.056Z,25.5
2022-12-18T15:21:04.235Z,24.8
2022-12-18T15:24:04.062Z,25.4
2022-12-18T15:27:04.061Z,24.8
2022-12-18T15:30:04.077Z,25.1
2022-12-18T15:33:04.078Z,25
2022-12-18T15:36:04.076Z,24.6
2022-12-18T15:39:04.977Z,23.4
2022-12-18T15:42:04.088Z,25.5
2022-12-18T15:45:04.096Z,24.6
2022-12-18T15:48:04.100Z,24.6
2022-12-18T15:51:04.106Z,25.5
2022-12-18T15:54:04.109Z,25.1
2022-12-18T15:57:04.248Z,25.2
2022-12-18T16:00:04.117Z,24
2022-12-18T16:03:04.347Z,26.3
2022-12-18T16:06:04.306Z,27.1
2022-12-18T16:09:04.129Z,26.6
2022-12-18T16:12:04.149Z,27.2
2022-12-18T16:15:04.301Z,25.7
2022-12-18T16:18:04.142Z,27
2022-12-18T16:21:04.147Z,26.4
2022-12-18T16:24:04.151Z,26.8
2022-12-18T16:27:04.166Z,25.7
2022-12-18T16:30:04.158Z,24.1
2022-12-18T16:33:04.285Z,24.8
2022-12-18T16:36:04.176Z,25.2
2022-12-18T16:39:04.174Z,25.4
2022-12-18T16:42:04.834Z,25.9
2022-12-18T16:45:04.187Z,25.6
2022-12-18T16:48:04.186Z,26.1
2022-12-18T16:51:04.311Z,25.5
2022-12-18T16:54:08.057Z,26.3
2022-12-18T16:57:04.204Z,27.1
2022-12-18T17:00:05.783Z,28
2022-12-18T17:03:04.498Z,26.3
2022-12-18T17:06:04.213Z,26.7
2022-12-18T17:09:04.340Z,26.1
2022-12-18T17:12:04.712Z,25.7
2022-12-18T17:15:04.233Z,27.4
2022-12-18T17:18:04.235Z,25.5
2022-12-18T17:21:04.238Z,25.8
2022-12-18T17:24:04.253Z,24.7
2022-12-18T17:27:04.381Z,26.9
2022-12-18T17:30:04.265Z,25
2022-12-18T17:33:04.269Z,24.8
2022-12-18T17:36:04.276Z,24.2
2022-12-18T17:39:04.280Z,24.2
2022-12-18T17:42:04.279Z,24.7
2022-12-18T17:45:04.411Z,24.6
2022-12-18T17:48:04.291Z,24.3
2022-12-18T17:51:04.292Z,24.3
2022-12-18T17:54:04.295Z,25.5
2022-12-18T17:57:04.297Z,24.8
2022-12-18T18:00:04.298Z,24.3
2022-12-18T18:03:04.597Z,24.5
2022-12-18T18:06:04.311Z,25.7
2022-12-18T18:09:04.322Z,23.1
2022-12-18T18:12:04.335Z,24.1
2022-12-18T18:15:04.329Z,24.2
2022-12-18T18:18:04.337Z,26.8
2022-12-18T18:21:04.473Z,24.9
2022-12-18T18:24:04.338Z,26.2
2022-12-18T18:27:04.338Z,24.8
2022-12-18T18:30:04.381Z,25.2
2022-12-18T18:33:07.616Z,26.5
2022-12-18T18:36:04.363Z,26
2022-12-18T18:39:04.490Z,27.2
2022-12-18T18:42:04.366Z,26.3
2022-12-18T18:45:04.376Z,26.7
2022-12-18T18:48:04.381Z,25.9
2022-12-18T18:51:04.382Z,23.6
2022-12-18T18:54:04.396Z,25.7
2022-12-18T18:57:19.804Z,26.7
2022-12-18T19:00:04.400Z,26.8
2022-12-18T19:03:04.476Z,23.8
2022-12-18T19:06:04.409Z,26.8
2022-12-18T19:09:04.416Z,27.2
2022-12-18T19:12:04.418Z,25.7
2022-12-18T19:15:04.724Z,28.2
2022-12-18T19:18:04.428Z,28.7
2022-12-18T19:21:04.428Z,28
2022-12-18T19:24:04.434Z,30.7
2022-12-18T19:27:04.432Z,28.2
2022-12-18T19:30:04.435Z,26
2022-12-18T19:33:14.792Z,28.8
2022-12-18T19:36:04.448Z,26.1
2022-12-18T19:39:04.450Z,26.2
2022-12-18T19:42:04.455Z,25.8
2022-12-18T19:45:04.465Z,26.2
2022-12-18T19:48:04.723Z,25.6
2022-12-18T19:51:04.592Z,26
2022-12-18T19:54:04.494Z,26
2022-12-18T19:57:04.483Z,25.8
2022-12-18T20:00:04.482Z,25.6
2022-12-18T20:03:12.981Z,25.3
2022-12-18T20:06:04.497Z,25.7
2022-12-18T20:09:04.620Z,26.2
2022-12-18T20:12:04.514Z,26.1
2022-12-18T20:15:04.509Z,26.4
2022-12-18T20:18:04.511Z,25.2
2022-12-18T20:21:06.271Z,27.9
2022-12-18T20:24:04.525Z,25.9
2022-12-18T20:27:04.654Z,26.6
2022-12-18T20:30:04.537Z,25.7
2022-12-18T20:33:04.687Z,26.4
2022-12-18T20:36:04.599Z,25.3
2022-12-18T20:39:05.466Z,26.6
2022-12-18T20:42:04.547Z,27.2
2022-12-18T20:45:04.863Z,25.7
2022-12-18T20:48:04.555Z,27.2
2022-12-18T20:51:04.561Z,27.6
2022-12-18T20:54:06.979Z,27.8
2022-12-18T20:57:04.577Z,27
2022-12-18T21:00:04.574Z,28.1
2022-12-18T21:03:04.840Z,28.4
2022-12-18T21:06:04.588Z,28.6
2022-12-18T21:09:04.586Z,29.2
2022-12-18T21:12:04.592Z,30
2022-12-18T21:15:04.599Z,27.7
2022-12-18T21:18:04.600Z,29.4
2022-12-18T21:21:04.720Z,26.7
2022-12-18T21:24:04.607Z,29.3
2022-12-18T21:27:04.617Z,28.5
2022-12-18T21:30:04.618Z,26.6
2022-12-18T21:33:04.624Z,29
2022-12-18T21:36:04.625Z,26.8
2022-12-18T21:39:04.764Z,26.1
2022-12-18T21:42:04.639Z,28
2022-12-18T21:45:04.644Z,28.2
2022-12-18T21:48:04.646Z,25.8
2022-12-18T21:51:04.649Z,26.8
2022-12-18T21:54:04.656Z,26.3
2022-12-18T21:57:04.787Z,25.5
2022-12-18T22:00:04.665Z,24.9
2022-12-18T22:03:18.021Z,23.3
2022-12-18T22:06:09.118Z,23.5
2022-12-18T22:09:04.674Z,23.3
2022-12-18T22:12:04.681Z,24.9
2022-12-18T22:15:04.805Z,22.8
2022-12-18T22:18:04.686Z,26.6
2022-12-18T22:21:04.696Z,23.6
2022-12-18T22:24:04.695Z,23.2
2022-12-18T22:27:04.704Z,22.9
2022-12-18T22:30:04.707Z,23.3
2022-12-18T22:33:04.837Z,23.6
2022-12-18T22:36:04.717Z,22
2022-12-18T22:39:04.717Z,22.9
2022-12-18T22:42:04.731Z,24.1
2022-12-18T22:45:04.727Z,24.9
2022-12-18T22:48:04.739Z,23.4
2022-12-18T22:51:04.869Z,22.8
2022-12-18T22:54:04.747Z,23.7
2022-12-18T22:57:04.752Z,23.6
2022-12-18T23:00:04.757Z,23.1
2022-12-18T23:03:04.993Z,23.5
2022-12-18T23:06:04.767Z,23.4
2022-12-18T23:09:04.894Z,22.2
2022-12-18T23:12:04.771Z,22.1
2022-12-18T23:15:04.775Z,23.7
2022-12-18T23:18:04.783Z,22.3
2022-12-18T23:21:04.787Z,23.8
2022-12-18T23:24:04.793Z,22.8
2022-12-18T23:27:04.917Z,22.6
2022-12-18T23:30:04.799Z,22.8
2022-12-18T23:33:04.800Z,21.6
2022-12-18T23:36:04.808Z,22.8
2022-12-18T23:39:04.816Z,21.3
2022-12-18T23:42:04.814Z,21
2022-12-18T23:45:08.573Z,20.4
2022-12-18T23:48:04.829Z,21.3
2022-12-18T23:51:04.825Z,20.5
2022-12-18T23:54:04.832Z,20.8
2022-12-18T23:57:04.837Z,21.9
